• Join FlightAware (Why Join?)
  • Login
  • US Flag 
07:36PM EDT


 

Airport Tracker/Info


-or-


 

Live Flight TrackerFlight Track Log ✈ N178CT ✈ 28-Oct-2013 ✈ KMFD - KOSU

Flight Track Log - Related Links

Times and Time Zones

All times are in EDT time to prevent confusion due to time zone crossing. See the N178CT flight status page for this flight to view local times or setup timezone preferences in your user account.

Time Position Orientation Groundspeed Altitude Reporting Facility
EDT Latitude Longitude Course Direction KTS MPH feet Rate Location/Type
03:12PM 40.6725 -82.6456 209° Southwest 88 101 3,500  Level Indianapolis Center
03:13PM 40.6500 -82.6636 211° Southwest 93 107 3,400 -60 Descending Indianapolis Center
03:14PM 40.6272 -82.6814 211° Southwest 94 108 3,400  Level Indianapolis Center
03:15PM 40.6443 -82.6509 210° Southwest  Level Estimated
03:15PM 40.6069 -82.7003 215° Southwest 90 104 3,500  Level Indianapolis Center
03:16PM 40.6084 -82.6766 209° Southwest  Level FlightAware Approximate
03:16PM 40.5850 -82.7156 208° Southwest 88 101 3,500  Level Indianapolis Center
03:17PM 40.5725 -82.7022 209° Southwest  Level FlightAware Approximate
03:17PM 40.5633 -82.7336 212° Southwest 90 104 3,500  Level Indianapolis Center
03:18PM 40.5386 -82.7522 210° Southwest 87 100 3,500  Level Indianapolis Center
03:19PM 40.5189 -82.7689 213° Southwest 85 98 3,500  Level Indianapolis Center
03:20PM 40.4967 -82.7850 209° Southwest 88 101 3,600  Climbing Indianapolis Center
03:21PM 40.4767 -82.8017 212° Southwest 91 105 3,500  Descending Indianapolis Center
03:22PM 40.4511 -82.8214 210° Southwest 91 105 3,600  Climbing Indianapolis Center
03:23PM 40.4292 -82.8358 207° Southwest 89 102 3,600  Level Indianapolis Center
03:23PM 40.4292 -82.8364 270° West 90 104 3,600  Level Indianapolis Center
03:24PM 40.4128 -82.8550 221° Southwest 93 107 3,600 60 Level Indianapolis Center
03:24PM 40.4081 -82.8558 188° South 91 105 3,700 -180 Climbing Indianapolis Center
03:25PM 40.3917 -82.8847 233° Southwest 94 108 3,400 -360 Descending Indianapolis Center
03:25PM 40.3900 -82.8953 258° West 99 114 3,300 -180 Descending Indianapolis Center
03:26PM 40.3778 -82.9128 227° Southwest 94 108 3,300 -120 Level Indianapolis Center
03:26PM 40.3767 -82.9139 217° Southwest 96 110 3,200 -420 Descending Indianapolis Center
03:27PM 40.3606 -82.9400 231° Southwest 97 112 2,900 -300 Descending Indianapolis Center
03:27PM 40.3589 -82.9408 201° Southwest 97 112 2,900 -120 Level Indianapolis Center
03:28PM 40.3411 -82.9672 229° Southwest 95 109 2,800 -240 Descending Indianapolis Center
03:28PM 40.3375 -82.9714 221° Southwest 96 110 2,700 -360 Descending Indianapolis Center
03:29PM 40.3189 -82.9967 226° Southwest 96 110 2,400 -240 Descending Indianapolis Center
03:30PM 40.3111 -83.0200 246° West 89 102 2,300 -120 Descending Indianapolis Center
03:30PM 40.3050 -83.0297 231° Southwest 95 109 2,300  Level Indianapolis Center